Time;durP1;ratioP1;P1;durP2;ratioP2;P2;SDS_P1;SDS_P2;PMS_P1;PMS_P2;Temp;Humidity;BMP_temperature;BMP_pressure;BME280_temperature;BME280_humidity;BME280_pressure;Samples;Min_cycle;Max_cycle;Signal;HPM_P1;HPM_P2
2021/06/23 00:01:35;;;;;;;;;39.50;32.75;;;;;15.05;74.81;100745.19;4983449;28;45043;-90
2021/06/23 00:04:00;;;;;;;;;36.50;33.00;;;;;15.05;74.42;100746.06;5001433;28;45120;-90
2021/06/23 00:06:25;;;;;;;;;35.50;32.00;;;;;15.03;74.62;100753.34;5001934;28;45491;-89
2021/06/23 00:08:51;;;;;;;;;37.75;33.00;;;;;15.00;74.36;100757.06;5001700;28;48213;-91
2021/06/23 00:11:17;;;;;;;;;34.25;31.00;;;;;14.69;74.32;100701.34;5001728;28;46024;-89
2021/06/23 00:13:42;;;;;;;;;30.50;30.00;;;;;14.95;74.32;100744.97;5001865;28;45303;-91
2021/06/23 00:16:08;;;;;;;;;32.50;31.50;;;;;14.81;74.38;100725.41;5002001;28;45321;-89
2021/06/23 00:18:34;;;;;;;;;32.75;30.25;;;;;14.93;74.30;100742.41;5018186;28;47456;-91
2021/06/23 00:21:00;;;;;;;;;37.75;33.00;;;;;14.77;74.17;100720.38;5001735;28;45859;-89
2021/06/23 00:23:25;;;;;;;;;36.00;31.75;;;;;14.82;74.57;100736.97;5018243;28;45161;-90
2021/06/23 00:25:51;;;;;;;;;36.00;32.00;;;;;14.75;74.31;100730.31;5001901;28;45217;-91
2021/06/23 00:28:17;;;;;;;;;32.50;31.00;;;;;14.88;74.61;100763.31;5017930;28;47034;-89
2021/06/23 00:30:42;;;;;;;;;35.25;31.75;;;;;14.70;74.79;100729.81;5001442;28;45193;-89
2021/06/23 00:33:16;;;;;;;;;33.25;29.50;;;;;14.58;74.38;100705.59;5001556;28;45422;-93
2021/06/23 00:35:42;;;;;;;;;32.75;30.00;;;;;14.74;74.51;100734.00;5001590;28;45237;-90
2021/06/23 00:38:07;;;;;;;;;36.50;31.50;;;;;14.89;74.52;100748.94;5001531;28;48198;-91
2021/06/23 00:40:33;;;;;;;;;33.00;30.75;;;;;14.88;74.47;100757.97;5001295;28;45177;-90
2021/06/23 00:42:59;;;;;;;;;36.50;32.00;;;;;14.83;74.63;100752.06;5001624;28;45213;-90
2021/06/23 00:45:25;;;;;;;;;33.25;32.00;;;;;14.88;74.59;100757.09;5001583;28;45138;-89
2021/06/23 00:47:53;;;;;;;;;36.00;33.00;;;;;14.86;74.22;100743.81;5001520;28;47945;-90
2021/06/23 00:50:20;;;;;;;;;35.75;31.25;;;;;14.77;74.20;100731.94;5001244;28;45773;-89
2021/06/23 00:52:46;;;;;;;;;35.00;29.50;;;;;14.62;74.40;100712.47;5001368;28;45286;-89
2021/06/23 00:55:20;;;;;;;;;34.00;30.00;;;;;14.58;74.09;100708.25;5018174;28;45384;-89
2021/06/23 00:57:47;;;;;;;;;34.50;30.00;;;;;14.68;74.14;100724.56;4998057;28;47592;-89
2021/06/23 01:00:13;;;;;;;;;42.25;32.00;;;;;14.76;74.34;100732.91;5001066;28;45264;-91
2021/06/23 01:02:38;;;;;;;;;34.75;32.00;;;;;14.59;74.16;100701.09;5000742;28;45194;-89
2021/06/23 01:05:04;;;;;;;;;36.25;31.25;;;;;14.88;74.49;100744.59;5017775;28;45204;-90
2021/06/23 01:07:30;;;;;;;;;33.75;30.75;;;;;14.90;73.79;100741.78;5017839;28;47509;-92
2021/06/23 01:09:56;;;;;;;;;37.25;31.25;;;;;14.57;74.12;100695.84;5000887;28;45274;-90
2021/06/23 01:12:27;;;;;;;;;32.00;29.00;;;;;14.87;74.19;100745.53;5000752;28;45096;-90
2021/06/23 01:14:59;;;;;;;;;32.50;30.00;;;;;14.84;74.14;100745.75;5001084;28;45456;-90
2021/06/23 01:17:27;;;;;;;;;35.50;30.75;;;;;14.70;73.89;100735.16;5000838;28;48071;-90
2021/06/23 01:20:03;;;;;;;;;35.75;31.75;;;;;14.42;74.02;100691.56;5000620;28;45242;-89
2021/06/23 01:22:28;;;;;;;;;34.25;30.50;;;;;14.72;74.22;100755.50;5000742;28;45162;-90
2021/06/23 01:24:53;;;;;;;;;35.75;32.00;;;;;14.65;74.28;100740.81;5000907;28;45291;-91
2021/06/23 01:27:19;;;;;;;;;37.50;33.00;;;;;14.76;74.05;100756.97;5000611;28;48294;-89
2021/06/23 01:29:44;;;;;;;;;34.75;30.25;;;;;14.69;74.02;100744.16;5000450;28;45413;-89
2021/06/23 01:32:09;;;;;;;;;35.50;31.00;;;;;14.62;73.80;100728.53;5000933;28;45110;-90
2021/06/23 01:34:35;;;;;;;;;35.75;32.00;;;;;14.77;74.14;100753.34;5000791;28;45396;-90
2021/06/23 01:37:01;;;;;;;;;40.50;33.00;;;;;14.46;74.09;100696.56;5000387;28;47403;-90
2021/06/23 01:39:26;;;;;;;;;32.25;30.25;;;;;14.71;73.79;100742.22;5000244;28;45251;-91
2021/06/23 01:41:52;;;;;;;;;35.00;31.75;;;;;14.60;74.13;100725.06;5000547;28;45268;-90
2021/06/23 01:44:17;;;;;;;;;35.50;30.25;;;;;14.75;74.26;100747.25;5017105;28;45391;-88
2021/06/23 01:46:43;;;;;;;;;34.75;31.00;;;;;14.71;73.90;100740.41;5000484;28;46997;-90
2021/06/23 01:49:09;;;;;;;;;36.50;32.75;;;;;14.62;74.03;100736.56;5000479;28;45990;-89
2021/06/23 01:51:34;;;;;;;;;33.00;29.75;;;;;14.42;74.32;100703.13;5000572;28;45243;-90
2021/06/23 01:53:59;;;;;;;;;36.75;31.50;;;;;14.72;74.04;100749.28;5000113;28;45453;-92
2021/06/23 01:56:28;;;;;;;;;34.25;30.00;;;;;14.64;74.15;100739.97;5017023;28;47356;-90
2021/06/23 01:58:54;;;;;;;;;33.75;30.00;;;;;14.62;73.78;100736.56;5000227;28;45698;-91
2021/06/23 02:01:27;;;;;;;;;35.25;29.50;;;;;14.60;73.95;100735.75;5000511;28;45126;-91
2021/06/23 02:03:56;;;;;;;;;33.50;30.00;;;;;14.70;73.70;100745.88;5000222;28;45430;-91
2021/06/23 02:06:21;;;;;;;;;39.25;32.75;;;;;14.67;74.06;100747.78;4999957;28;48243;-89
2021/06/23 02:09:01;;;;;;;;;35.00;31.67;;;;;14.65;74.14;100741.69;4999746;28;45240;-92
2021/06/23 02:11:34;;;;;;;;;34.00;31.00;;;;;14.65;74.05;100748.84;5000073;28;45130;-91
2021/06/23 02:14:38;;;;;;;;;38.25;30.75;;;;;14.66;74.58;100746.09;4999997;28;45482;-90
2021/06/23 02:17:07;;;;;;;;;36.50;32.50;;;;;14.67;74.13;100753.13;4989441;28;47301;-91
2021/06/23 02:19:38;;;;;;;;;35.50;29.75;;;;;14.43;73.99;100714.69;4999723;28;45615;-91
2021/06/23 02:22:04;;;;;;;;;33.00;28.75;;;;;14.45;74.20;100713.59;5016720;28;45259;-90
2021/06/23 02:24:30;;;;;;;;;34.00;31.25;;;;;14.43;74.52;100706.66;5000110;28;45409;-90
2021/06/23 02:26:56;;;;;;;;;32.50;30.50;;;;;14.70;74.25;100745.88;4999607;28;47095;-89
2021/06/23 02:29:22;;;;;;;;;31.25;27.50;;;;;14.48;74.53;100713.41;4999570;28;45774;-91
2021/06/23 02:31:50;;;;;;;;;31.50;28.50;;;;;14.35;74.52;100688.47;5000063;28;45125;-88
2021/06/23 02:34:17;;;;;;;;;31.25;29.25;;;;;14.48;74.41;100704.53;5016096;28;45326;-90
2021/06/23 02:36:43;;;;;;;;;39.25;32.00;;;;;14.52;73.84;100716.69;4999943;28;47044;-90
2021/06/23 02:39:09;;;;;;;;;33.50;30.50;;;;;14.71;73.93;100744.88;4999477;28;45240;-91
2021/06/23 02:41:35;;;;;;;;;34.25;29.00;;;;;14.68;73.79;100740.63;5016193;28;45190;-89
2021/06/23 02:44:01;;;;;;;;;36.00;30.50;;;;;14.41;74.06;100708.56;4999682;28;45247;-89
2021/06/23 02:46:27;;;;;;;;;29.00;25.75;;;;;14.59;73.97;100736.75;4999626;28;47983;-92
2021/06/23 02:48:52;;;;;;;;;27.50;26.50;;;;;14.59;74.22;100738.53;4999241;28;45226;-90
2021/06/23 02:51:19;;;;;;;;;34.00;31.00;;;;;14.67;73.90;100755.81;4999435;28;45196;-91
2021/06/23 02:53:46;;;;;;;;;31.75;29.25;;;;;14.48;74.25;100728.59;4999523;28;45181;-91
2021/06/23 02:56:12;;;;;;;;;31.25;27.25;;;;;14.43;74.33;100726.22;4999512;28;48062;-89
2021/06/23 02:58:41;;;;;;;;;29.25;28.50;;;;;14.49;74.32;100735.66;4999216;28;45209;-91
2021/06/23 03:01:06;;;;;;;;;31.25;29.00;;;;;14.47;74.69;100730.41;4999559;28;45281;-91
2021/06/23 03:03:31;;;;;;;;;35.00;28.50;;;;;14.63;74.35;100756.13;4999072;28;45321;-90
2021/06/23 03:06:01;;;;;;;;;30.50;26.25;;;;;14.36;74.24;100710.72;4999029;28;48214;-90
2021/06/23 03:08:28;;;;;;;;;27.50;26.00;;;;;14.34;74.51;100708.16;4999389;28;45183;-91
2021/06/23 03:10:53;;;;;;;;;32.50;27.75;;;;;14.62;74.82;100755.28;4999043;28;45271;-90
2021/06/23 03:13:18;;;;;;;;;35.25;32.00;;;;;14.40;75.05;100717.56;5015514;28;45190;-90
2021/06/23 03:15:44;;;;;;;;;38.75;30.75;;;;;14.50;74.72;100732.00;4998987;28;47198;-90
2021/06/23 03:18:10;;;;;;;;;38.00;30.00;;;;;14.64;74.86;100745.31;4999148;28;45240;-91
2021/06/23 03:20:35;;;;;;;;;31.25;29.00;;;;;14.55;75.01;100740.59;5016830;28;45219;-90
2021/06/23 03:23:00;;;;;;;;;34.25;28.25;;;;;14.65;74.63;100748.84;4999335;28;45214;-89
2021/06/23 03:25:26;;;;;;;;;29.00;25.50;;;;;14.63;75.22;100756.13;5002363;28;48138;-91
2021/06/23 03:27:56;;;;;;;;;26.75;23.50;;;;;14.32;74.29;100704.69;5002293;28;45247;-90
2021/06/23 03:30:23;;;;;;;;;31.75;30.00;;;;;14.55;74.31;100748.63;5002695;28;45186;-90
2021/06/23 03:32:50;;;;;;;;;29.00;26.50;;;;;14.45;74.39;100728.78;5002685;28;45517;-90
2021/06/23 03:35:16;;;;;;;;;29.75;27.00;;;;;14.52;74.77;100738.09;5001877;28;47231;-90
2021/06/23 03:37:41;;;;;;;;;30.25;28.75;;;;;14.44;74.49;100732.44;5002531;28;45970;-90
2021/06/23 03:40:07;;;;;;;;;30.50;27.75;;;;;14.50;75.08;100743.56;5002177;28;45134;-89
2021/06/23 03:42:32;;;;;;;;;40.25;32.75;;;;;14.29;74.86;100700.44;5002410;28;45165;-89
2021/06/23 03:44:58;;;;;;;;;30.00;26.50;;;;;14.37;74.62;100715.94;5001786;28;47528;-89
2021/06/23 03:47:23;;;;;;;;;31.75;29.75;;;;;14.53;74.96;100733.63;5002352;28;45109;-90
2021/06/23 03:49:49;;;;;;;;;32.50;30.00;;;;;14.62;74.80;100752.63;5002380;28;45204;-88
2021/06/23 03:52:14;;;;;;;;;34.75;27.25;;;;;14.54;74.42;100744.22;5002578;28;45355;-88
2021/06/23 03:54:39;;;;;;;;;33.00;29.75;;;;;14.43;74.28;100725.38;5002002;28;46878;-90
2021/06/23 03:57:05;;;;;;;;;32.00;30.00;;;;;14.57;74.59;100751.19;5002244;28;45225;-91
2021/06/23 03:59:30;;;;;;;;;35.00;30.00;;;;;14.52;74.56;100753.31;5001956;28;45236;-88
2021/06/23 04:01:55;;;;;;;;;32.75;28.50;;;;;14.35;74.93;100735.72;5002282;28;45193;-89
2021/06/23 04:04:21;;;;;;;;;37.75;30.00;;;;;14.48;74.52;100752.69;5018607;28;46540;-91
2021/06/23 04:06:47;;;;;;;;;37.00;30.00;;;;;14.52;74.68;100759.50;5002327;28;45223;-92
2021/06/23 04:09:12;;;;;;;;;40.00;32.50;;;;;14.34;74.56;100740.25;5019007;28;45231;-89
2021/06/23 04:11:38;;;;;;;;;27.75;26.00;;;;;14.37;74.70;100742.69;5020248;28;45339;-92
2021/06/23 04:14:04;;;;;;;;;29.50;27.75;;;;;14.38;74.66;100739.06;5001431;28;46980;-89
2021/06/23 04:16:29;;;;;;;;;29.75;28.25;;;;;14.40;74.67;100739.81;5018501;28;45728;-89
2021/06/23 04:18:55;;;;;;;;;32.75;29.25;;;;;14.26;74.54;100724.69;5019838;28;45364;-89
2021/06/23 04:21:20;;;;;;;;;30.00;27.25;;;;;14.40;74.28;100749.66;5001837;28;45248;-88
2021/06/23 04:23:45;;;;;;;;;31.25;26.75;;;;;14.46;74.30;100758.09;5002268;28;48233;-91
2021/06/23 04:26:11;;;;;;;;;33.00;28.75;;;;;14.07;74.55;100698.38;5001751;28;45376;-90
2021/06/23 04:28:36;;;;;;;;;28.75;27.75;;;;;14.52;74.33;100778.22;5005175;28;45219;-90
2021/06/23 04:31:02;;;;;;;;;32.00;28.25;;;;;14.22;74.06;100730.38;5002029;28;45287;-90
2021/06/23 04:33:27;;;;;;;;;33.25;28.75;;;;;14.49;74.12;100773.97;5019313;28;45532;-89
2021/06/23 04:35:54;;;;;;;;;34.00;28.50;;;;;14.32;74.45;100748.38;5018086;28;45269;-91
2021/06/23 04:38:20;;;;;;;;;32.50;29.75;;;;;14.50;74.32;100775.66;5001698;28;45200;-91
2021/06/23 04:40:46;;;;;;;;;35.50;30.00;;;;;14.39;74.52;100764.00;5000350;28;45275;-91
2021/06/23 04:43:11;;;;;;;;;33.25;27.75;;;;;14.27;74.16;100733.59;5019397;28;45920;-88
2021/06/23 04:45:36;;;;;;;;;31.50;28.25;;;;;14.51;74.56;100765.84;5001174;28;45150;-89
2021/06/23 04:48:02;;;;;;;;;33.50;28.50;;;;;14.26;73.87;100730.03;5018112;28;45153;-89
2021/06/23 04:50:28;;;;;;;;;29.25;27.00;;;;;14.22;74.11;100733.03;5019095;28;45258;-89
2021/06/23 04:52:53;;;;;;;;;30.25;27.25;;;;;14.55;74.63;100787.88;5000364;28;46933;-89
2021/06/23 04:55:19;;;;;;;;;34.25;30.00;;;;;14.55;74.07;100787.88;5000784;28;45670;-89
2021/06/23 04:57:44;;;;;;;;;34.75;28.50;;;;;14.31;74.04;100749.31;5001436;28;45263;-89
2021/06/23 05:00:11;;;;;;;;;28.50;25.50;;;;;14.48;74.33;100779.44;5001106;28;45327;-91
2021/06/23 05:02:37;;;;;;;;;30.00;28.75;;;;;14.30;74.34;100758.31;5000881;28;47845;-91
2021/06/23 05:05:03;;;;;;;;;34.00;26.75;;;;;14.39;74.05;100764.00;5000937;28;45535;-90
2021/06/23 05:07:29;;;;;;;;;30.25;28.50;;;;;14.48;74.09;100774.09;5001433;28;45198;-89
2021/06/23 05:09:54;;;;;;;;;32.00;27.50;;;;;14.56;74.06;100785.09;5000937;28;45658;-92
2021/06/23 05:12:22;;;;;;;;;25.25;24.25;;;;;14.62;73.99;100797.22;5017459;28;46941;-91
2021/06/23 05:14:47;;;;;;;;;33.25;28.25;;;;;14.34;74.27;100753.63;5000789;28;45734;-90
2021/06/23 05:17:13;;;;;;;;;24.50;22.25;;;;;14.45;74.18;100772.47;5001430;28;45240;-90
2021/06/23 05:19:38;;;;;;;;;28.75;28.50;;;;;14.32;74.06;100753.72;5001238;28;45280;-92
2021/06/23 05:22:05;;;;;;;;;29.00;27.50;;;;;14.50;74.13;100782.84;5000676;28;47195;-90
2021/06/23 05:24:32;;;;;;;;;27.50;23.25;;;;;14.67;74.02;100819.19;5000940;28;45797;-90
2021/06/23 05:26:57;;;;;;;;;31.75;28.50;;;;;14.48;73.72;100790.13;5001221;28;45129;-92
2021/06/23 05:29:22;;;;;;;;;30.50;26.75;;;;;14.53;74.09;100798.69;5018930;28;45176;-91
2021/06/23 05:31:48;;;;;;;;;28.75;25.50;;;;;14.60;74.04;100805.34;5000904;28;47102;-91
2021/06/23 05:34:13;;;;;;;;;29.75;26.75;;;;;14.68;73.89;100823.59;5000531;28;45588;-91
2021/06/23 05:36:38;;;;;;;;;33.50;29.75;;;;;14.54;73.99;100808.44;5001191;28;45334;-90
2021/06/23 05:39:04;;;;;;;;;33.50;30.00;;;;;14.62;73.93;100824.88;5018678;28;45223;-89
2021/06/23 05:41:30;;;;;;;;;32.75;29.50;;;;;14.41;73.71;100795.03;5017987;28;47224;-92
2021/06/23 05:43:55;;;;;;;;;27.50;24.75;;;;;14.46;74.03;100800.06;4999272;28;45168;-92
2021/06/23 05:46:21;;;;;;;;;24.50;23.50;;;;;14.51;73.99;100811.31;5000409;28;45627;-92
2021/06/23 05:48:49;;;;;;;;;29.75;26.00;;;;;14.52;73.74;100804.16;5001084;28;45190;-92
2021/06/23 05:51:15;;;;;;;;;27.50;26.00;;;;;14.37;73.74;100790.00;5018122;28;46287;-89
2021/06/23 05:53:40;;;;;;;;;33.50;27.75;;;;;14.28;73.78;100776.28;5001065;28;45724;-90
2021/06/23 05:56:05;;;;;;;;;28.00;26.75;;;;;14.26;74.36;100772.00;5000235;28;45320;-90
2021/06/23 05:58:33;;;;;;;;;31.25;28.25;;;;;14.27;74.13;100766.53;5018719;28;45233;-92
2021/06/23 06:01:01;;;;;;;;;30.75;27.25;;;;;14.65;73.88;100827.31;5018239;28;46127;-89
2021/06/23 06:03:26;;;;;;;;;25.75;23.75;;;;;14.54;74.17;100815.63;4999661;28;45208;-91
2021/06/23 06:05:52;;;;;;;;;27.00;25.75;;;;;14.56;74.02;100808.31;5001821;28;45338;-93
2021/06/23 06:08:17;;;;;;;;;28.00;25.00;;;;;14.70;74.52;100835.03;5018870;28;45308;-90
2021/06/23 06:10:42;;;;;;;;;26.00;24.50;;;;;14.54;74.02;100800.41;5018900;28;45956;-92
2021/06/23 06:13:08;;;;;;;;;27.00;24.75;;;;;14.78;73.97;100837.22;5019477;28;45199;-92
2021/06/23 06:15:33;;;;;;;;;35.75;28.25;;;;;14.79;73.93;100833.53;5020992;28;45243;-90
2021/06/23 06:18:07;;;;;;;;;26.25;25.25;;;;;14.83;73.70;100832.38;5019373;28;45327;-91
2021/06/23 06:20:33;;;;;;;;;42.50;35.50;;;;;14.93;73.71;100844.16;5017223;28;45613;-88
2021/06/23 06:22:59;;;;;;;;;30.50;26.00;;;;;14.92;73.69;100837.09;5017519;28;45208;-89
2021/06/23 06:25:25;;;;;;;;;36.00;32.75;;;;;15.00;73.66;100847.28;5017317;28;45281;-90
2021/06/23 06:27:51;;;;;;;;;34.00;30.75;;;;;14.96;73.34;100838.63;5017470;28;45661;-89
2021/06/23 06:30:16;;;;;;;;;32.50;28.50;;;;;15.02;73.41;100856.91;5017130;28;45736;-88
2021/06/23 06:32:42;;;;;;;;;28.00;25.00;;;;;15.04;73.05;100855.97;5016871;28;45180;-84
2021/06/23 06:35:08;;;;;;;;;36.75;30.00;;;;;14.95;72.84;100849.41;5016964;28;45129;-92
2021/06/23 06:37:33;;;;;;;;;29.00;27.75;;;;;15.02;73.21;100859.59;5017595;28;45278;-89
2021/06/23 06:39:58;;;;;;;;;25.75;24.00;;;;;14.97;72.95;100850.16;5016748;28;45213;-90
2021/06/23 06:42:24;;;;;;;;;28.75;25.25;;;;;15.06;72.88;100865.56;5016820;28;45233;-91
2021/06/23 06:44:49;;;;;;;;;26.75;24.75;;;;;15.07;73.11;100859.28;5017298;28;45335;-87
2021/06/23 06:47:14;;;;;;;;;28.75;28.25;;;;;15.08;72.98;100868.16;5016865;28;45273;-90
2021/06/23 06:49:40;;;;;;;;;28.50;25.75;;;;;15.09;72.95;100868.06;5017862;28;46155;-88
2021/06/23 06:52:06;;;;;;;;;28.50;25.75;;;;;15.10;72.92;100871.59;5017950;28;45779;-86
2021/06/23 06:54:31;;;;;;;;;32.75;29.50;;;;;15.00;72.65;100848.13;5018380;28;45306;-89
2021/06/23 06:56:57;;;;;;;;;26.25;23.25;;;;;15.09;72.42;100869.88;5016678;28;45127;-89
2021/06/23 06:59:23;;;;;;;;;23.75;23.00;;;;;15.09;72.79;100867.19;4999303;28;47958;-89
2021/06/23 07:01:49;;;;;;;;;26.00;24.75;;;;;15.09;72.64;100862.72;5018567;28;45678;-90
2021/06/23 07:04:15;;;;;;;;;28.75;25.50;;;;;15.10;72.36;100874.28;5017191;28;45267;-89
2021/06/23 07:06:46;;;;;;;;;22.25;20.75;;;;;15.10;72.44;100875.13;5017140;28;45205;-85
2021/06/23 07:09:12;;;;;;;;;24.75;22.25;;;;;15.09;72.63;100872.56;4999007;28;46242;-87
2021/06/23 07:11:38;;;;;;;;;27.00;24.00;;;;;15.05;72.40;100876.41;5016799;28;45258;-88
2021/06/23 07:14:03;;;;;;;;;25.00;24.00;;;;;15.09;72.41;100876.09;4999211;28;45269;-88
2021/06/23 07:16:29;;;;;;;;;25.50;24.25;;;;;14.99;72.53;100857.13;5017429;28;45100;-89
2021/06/23 07:18:54;;;;;;;;;25.25;23.50;;;;;15.11;72.58;100884.03;5016979;28;45274;-90
2021/06/23 07:21:20;;;;;;;;;22.75;21.50;;;;;15.10;72.32;100880.47;5016847;28;45341;-90
2021/06/23 07:23:46;;;;;;;;;31.00;28.00;;;;;15.14;71.98;100883.81;5017314;28;45235;-89
2021/06/23 07:26:13;;;;;;;;;25.25;22.50;;;;;15.12;72.21;100886.59;5017444;28;45240;-89
2021/06/23 07:31:08;;;;;;;;;27.50;23.50;;;;;15.12;72.06;100891.97;5016422;28;45740;-89
2021/06/23 07:33:35;;;;;;;;;27.75;24.50;;;;;15.08;71.97;100878.88;5016806;28;45283;-90
2021/06/23 07:38:44;;;;;;;;;26.50;24.25;;;;;14.87;71.90;100874.03;5016236;28;45243;-90
2021/06/23 07:41:09;;;;;;;;;25.00;23.00;;;;;14.95;71.80;100895.78;5016505;28;45229;-89
2021/06/23 07:43:35;;;;;;;;;27.00;24.00;;;;;14.92;72.07;100898.69;5016773;28;45121;-91
2021/06/23 07:46:03;;;;;;;;;27.00;24.00;;;;;14.90;72.30;100891.72;5016665;28;45170;-90
2021/06/23 07:48:35;;;;;;;;;24.50;23.00;;;;;14.89;72.07;100896.19;5016563;28;45255;-90
2021/06/23 07:53:43;;;;;;;;;24.25;24.25;;;;;14.91;72.46;100898.78;5016187;28;45121;-89
2021/06/23 07:56:22;;;;;;;;;22.25;22.00;;;;;14.96;72.22;100899.31;5016670;28;45271;-87
2021/06/23 08:09:31;;;;;;;;;25.75;19.50;;;;;15.06;72.13;100911.09;5019606;28;45217;-90
2021/06/23 08:12:15;;;;;;;;;20.00;20.00;;;;;15.06;72.07;100911.09;5019479;28;45645;-88
2021/06/23 08:14:40;;;;;;;;;16.75;16.75;;;;;15.06;71.79;100912.94;5019862;28;45169;-90
2021/06/23 08:17:07;;;;;;;;;19.50;16.50;;;;;15.02;71.89;100902.44;5019670;28;45160;-88
2021/06/23 08:19:32;;;;;;;;;22.00;19.25;;;;;15.08;71.92;100917.22;5016729;28;45248;-90
2021/06/23 08:21:58;;;;;;;;;18.75;17.00;;;;;15.12;71.85;100907.16;5019341;28;45212;-90
2021/06/23 08:24:23;;;;;;;;;16.50;16.25;;;;;15.19;71.50;100913.78;5017598;28;45302;-88
2021/06/23 08:26:49;;;;;;;;;15.50;15.50;;;;;15.19;72.00;100911.13;5017616;28;45279;-89
2021/06/23 08:29:14;;;;;;;;;17.00;15.25;;;;;15.21;72.01;100913.72;5018917;28;46299;-89
2021/06/23 08:31:39;;;;;;;;;17.00;15.50;;;;;15.21;71.70;100900.31;5019135;28;45260;-88
2021/06/23 08:34:05;;;;;;;;;16.00;13.00;;;;;15.23;71.82;100909.09;5019675;28;45221;-88
2021/06/23 08:36:30;;;;;;;;;14.00;14.00;;;;;15.22;71.82;100897.53;5019561;28;45213;-90
2021/06/23 08:38:56;;;;;;;;;14.75;14.75;;;;;15.30;71.66;100899.66;5019089;28;46334;-88
2021/06/23 08:41:26;;;;;;;;;13.75;13.75;;;;;15.33;71.56;100902.13;5018205;28;45205;-88
2021/06/23 08:43:56;;;;;;;;;17.25;16.50;;;;;15.35;71.38;100900.22;5000531;28;45180;-88
2021/06/23 08:46:21;;;;;;;;;17.50;16.75;;;;;15.34;71.58;100903.84;5018964;28;45277;-87
2021/06/23 08:48:46;;;;;;;;;18.50;17.25;;;;;15.32;71.22;100898.59;5018622;28;45337;-88
2021/06/23 08:51:13;;;;;;;;;17.00;14.25;;;;;15.34;71.45;100893.13;5002910;28;46048;-90
2021/06/23 08:53:38;;;;;;;;;16.00;15.50;;;;;15.34;71.54;100898.50;5022335;28;45486;-88
2021/06/23 08:56:06;;;;;;;;;15.50;13.75;;;;;15.33;71.46;100899.44;5020444;28;45176;-88
2021/06/23 08:58:31;;;;;;;;;17.75;14.75;;;;;15.36;71.64;100907.28;5002524;28;47447;-88
2021/06/23 09:00:57;;;;;;;;;17.50;17.25;;;;;15.38;71.46;100905.34;5003206;28;45250;-89
2021/06/23 09:03:23;;;;;;;;;16.75;16.00;;;;;15.41;71.43;100906.97;5020588;28;45315;-87
2021/06/23 09:05:55;;;;;;;;;18.75;16.50;;;;;15.43;71.01;100905.88;5020295;28;45162;-90
2021/06/23 09:08:34;;;;;;;;;21.50;18.00;;;;;15.45;71.10;100903.97;5018691;28;45411;-87
2021/06/23 09:11:02;;;;;;;;;20.75;18.00;;;;;15.45;71.07;100908.44;5001127;28;45695;-91
2021/06/23 09:13:28;;;;;;;;;22.00;19.50;;;;;15.49;70.94;100908.13;5019130;28;45235;-88
2021/06/23 09:15:58;;;;;;;;;17.00;15.50;;;;;15.50;70.80;100912.50;5018364;28;45377;-88
2021/06/23 09:18:27;;;;;;;;;18.75;18.75;;;;;15.52;70.75;100912.44;5017603;28;45551;-88
2021/06/23 09:20:56;;;;;;;;;20.50;18.50;;;;;15.52;70.74;100913.28;5017610;28;45156;-85
2021/06/23 09:23:39;;;;;;;;;16.50;15.75;;;;;15.46;70.65;100911.03;5018510;28;45196;-88
2021/06/23 09:26:19;;;;;;;;;19.75;16.25;;;;;15.51;70.79;100913.38;5017908;28;45469;-87
2021/06/23 09:29:02;;;;;;;;;18.50;18.50;;;;;15.51;71.03;100916.91;4999848;28;46488;-89
2021/06/23 09:31:51;;;;;;;;;19.50;17.25;;;;;15.58;70.99;100925.38;5017933;28;45659;-88
2021/06/23 09:34:28;;;;;;;;;18.25;16.25;;;;;15.62;70.86;100918.84;5017351;28;45284;-89
2021/06/23 09:36:54;;;;;;;;;19.00;18.25;;;;;15.65;70.52;100920.47;5017656;28;45152;-89
2021/06/23 09:39:22;;;;;;;;;21.50;20.25;;;;;15.62;70.33;100920.66;5017528;28;46119;-87
2021/06/23 09:41:49;;;;;;;;;18.25;15.00;;;;;15.67;70.29;100915.84;5017642;28;45217;-88
2021/06/23 09:44:14;;;;;;;;;17.50;14.25;;;;;15.67;70.10;100922.03;5018022;28;45207;-90
2021/06/23 09:46:42;;;;;;;;;16.75;15.75;;;;;15.73;70.39;100923.44;5018655;28;45228;-88
2021/06/23 09:49:16;;;;;;;;;17.25;13.25;;;;;15.78;70.02;100920.44;5017652;28;45973;-88
2021/06/23 09:51:45;;;;;;;;;16.75;14.50;;;;;15.82;70.20;100919.28;5018222;28;45313;-88
2021/06/23 09:54:11;;;;;;;;;20.00;17.00;;;;;15.85;70.15;100917.22;5017984;28;45315;-89
2021/06/23 09:56:41;;;;;;;;;15.25;14.00;;;;;15.84;70.01;100910.16;5017459;28;45241;-88
2021/06/23 09:59:07;;;;;;;;;15.50;14.25;;;;;15.88;70.24;100908.97;5017287;28;47249;-87
2021/06/23 10:01:39;;;;;;;;;18.75;16.75;;;;;15.96;69.99;100915.59;5017193;28;45145;-89
2021/06/23 10:04:08;;;;;;;;;17.75;16.75;;;;;15.98;69.89;100913.69;5018711;28;45336;-88
2021/06/23 10:06:46;;;;;;;;;18.50;15.75;;;;;15.98;70.05;100908.31;5018157;28;45233;-89
2021/06/23 10:09:19;;;;;;;;;17.25;15.50;;;;;15.95;70.06;100904.03;5017356;28;46148;-85
2021/06/23 10:11:45;;;;;;;;;19.00;16.75;;;;;16.06;70.05;100913.94;5017083;28;45559;-90
2021/06/23 10:14:10;;;;;;;;;17.00;15.25;;;;;16.04;69.75;100902.50;5017354;28;45218;-88
2021/06/23 10:16:36;;;;;;;;;17.25;14.50;;;;;16.10;69.78;100915.44;5017363;28;45300;-87
2021/06/23 10:19:06;;;;;;;;;18.75;18.00;;;;;16.12;69.63;100915.34;5017186;28;45806;-87
2021/06/23 10:21:34;;;;;;;;;23.25;19.50;;;;;16.13;69.66;100917.94;5017743;28;45624;-89
2021/06/23 10:24:00;;;;;;;;;23.50;19.25;;;;;16.11;69.62;100906.44;5016768;28;45216;-88
2021/06/23 10:26:27;;;;;;;;;18.25;15.75;;;;;16.18;69.81;100918.44;5017861;28;45209;-89
2021/06/23 10:28:53;;;;;;;;;17.50;17.50;;;;;16.21;69.76;100920.03;5016438;28;45204;-88
2021/06/23 10:31:22;;;;;;;;;20.00;19.25;;;;;16.24;69.59;100929.69;5017554;28;45250;-86
2021/06/23 10:33:48;;;;;;;;;21.50;18.00;;;;;16.26;69.48;100925.06;5016822;28;45167;-88
2021/06/23 10:36:14;;;;;;;;;22.25;19.50;;;;;16.27;69.68;100927.63;5016842;28;45208;-88
2021/06/23 10:38:42;;;;;;;;;21.25;16.75;;;;;16.27;69.29;100926.78;5016480;28;45385;-88
2021/06/23 10:41:09;;;;;;;;;21.00;19.25;;;;;16.30;69.43;100930.06;5016578;28;45255;-88
2021/06/23 10:43:34;;;;;;;;;17.75;17.50;;;;;16.30;69.26;100918.50;5016841;28;45216;-89
2021/06/23 10:45:59;;;;;;;;;18.25;16.75;;;;;16.30;69.69;100922.03;5017087;28;45242;-88
2021/06/23 10:48:25;;;;;;;;;17.25;15.50;;;;;16.35;69.85;100933.28;5017142;28;45181;-89
2021/06/23 10:50:50;;;;;;;;;22.00;20.25;;;;;16.37;69.08;100935.84;5016279;28;45219;-88
2021/06/23 10:53:45;;;;;;;;;20.50;19.50;;;;;16.41;69.55;100936.50;5016487;28;45194;-88
2021/06/23 10:56:40;;;;;;;;;21.50;19.75;;;;;16.41;69.40;100934.66;5002457;28;45192;-90
2021/06/23 10:59:35;;;;;;;;;22.25;20.25;;;;;16.47;69.45;100942.25;5012444;28;47339;-84
2021/06/23 11:02:09;;;;;;;;;26.50;22.75;;;;;16.51;69.49;100937.53;5011285;28;45219;-88
2021/06/23 11:05:03;;;;;;;;;21.50;21.50;;;;;16.55;68.87;100942.56;5022634;28;45248;-88
2021/06/23 11:07:47;;;;;;;;;20.50;18.75;;;;;16.58;68.87;100946.00;5009567;28;45283;-84
2021/06/23 11:10:16;;;;;;;;;21.50;20.75;;;;;16.59;69.29;100947.69;5010291;28;46783;-90
2021/06/23 11:12:55;;;;;;;;;23.75;22.25;;;;;16.61;69.29;100951.13;5017670;28;45242;-88
2021/06/23 11:15:33;;;;;;;;;29.50;23.50;;;;;16.57;69.03;100937.06;5016863;28;45176;-90
2021/06/23 11:18:15;;;;;;;;;26.00;21.25;;;;;16.65;68.62;100952.63;5000275;28;45265;-90
2021/06/23 11:20:42;;;;;;;;;25.75;23.75;;;;;16.66;68.83;100948.94;5016641;28;46423;-89
2021/06/23 11:23:46;;;;;;;;;30.50;29.25;;;;;16.65;68.60;100948.09;5017559;28;45785;-89
2021/06/23 11:26:33;;;;;;;;;26.25;22.25;;;;;16.69;68.68;100954.09;5019326;28;45128;-94
2021/06/23 11:29:10;;;;;;;;;21.00;21.00;;;;;16.69;68.72;100960.31;5006659;28;45433;-90
2021/06/23 11:31:43;;;;;;;;;22.50;20.75;;;;;16.72;68.89;100965.44;4999386;28;48467;-92